Time;durP1;ratioP1;P1;durP2;ratioP2;P2;SDS_P1;SDS_P2;PMS_P1;PMS_P2;Temp;Humidity;BMP_temperature;BMP_pressure;BME280_temperature;BME280_humidity;BME280_pressure;Samples;Min_cycle;Max_cycle;Signal;HPM_P1;HPM_P2
2022/12/29 00:01:36;;;;;;;2.97;1.50;;;9.00;99.90;;;;;;5072455;28;20025;-71
2022/12/29 00:04:03;;;;;;;5.50;1.48;;;9.10;99.90;;;;;;5070342;28;20098;-71
2022/12/29 00:06:29;;;;;;;3.90;1.60;;;9.10;99.90;;;;;;5072347;28;20024;-69
2022/12/29 00:08:54;;;;;;;4.82;1.75;;;9.20;99.90;;;;;;5072488;28;20074;-70
2022/12/29 00:11:24;;;;;;;3.00;1.33;;;9.20;99.90;;;;;;5073049;28;20459;-70
2022/12/29 00:16:36;;;;;;;3.13;1.45;;;9.30;99.90;;;;;;5068172;28;20035;-70
2022/12/29 00:19:03;;;;;;;4.60;1.70;;;9.30;99.90;;;;;;5072381;28;20091;-70
2022/12/29 00:35:33;;;;;;;1.77;1.10;;;9.50;99.90;;;;;;5077445;28;20031;-71
2022/12/29 00:46:17;;;;;;;2.38;1.40;;;9.60;99.90;;;;;;5072361;28;20070;-71
2022/12/29 00:51:27;;;;;;;1.83;1.38;;;9.70;99.90;;;;;;5071648;28;20082;-72
2022/12/29 00:53:52;;;;;;;2.08;1.20;;;9.80;99.90;;;;;;5068173;28;20427;-71
2022/12/29 00:56:18;;;;;;;2.40;1.40;;;9.90;99.90;;;;;;5072684;28;20021;-71
2022/12/29 00:58:43;;;;;;;3.50;1.40;;;10.10;99.90;;;;;;5070007;28;20095;-71
2022/12/29 01:01:09;;;;;;;1.88;1.20;;;10.10;99.90;;;;;;5072302;28;20436;-71
2022/12/29 01:03:36;;;;;;;2.88;1.25;;;10.20;99.90;;;;;;5070844;28;20029;-71
2022/12/29 01:06:04;;;;;;;4.10;1.33;;;10.20;99.90;;;;;;5071878;28;20033;-70
2022/12/29 01:08:30;;;;;;;1.38;1.05;;;10.30;99.90;;;;;;5070420;28;20067;-70
2022/12/29 01:11:10;;;;;;;2.33;1.05;;;10.20;99.90;;;;;;5066015;28;20458;-71
2022/12/29 01:13:38;;;;;;;4.53;1.20;;;10.30;99.90;;;;;;5069386;28;20465;-70
2022/12/29 01:16:04;;;;;;;5.10;1.33;;;10.30;99.90;;;;;;5071301;28;20067;-71
2022/12/29 01:18:30;;;;;;;1.55;1.13;;;10.40;99.90;;;;;;5070862;28;20035;-71
2022/12/29 01:21:02;;;;;;;2.67;0.93;;;10.40;99.90;;;;;;5071545;28;20032;-71
2022/12/29 01:23:28;;;;;;;1.75;1.02;;;10.40;99.90;;;;;;5069568;28;20049;-71
2022/12/29 01:25:54;;;;;;;4.45;1.23;;;10.40;99.90;;;;;;5071087;28;20521;-71
2022/12/29 01:28:20;;;;;;;2.45;1.00;;;10.40;99.90;;;;;;5066434;28;20107;-70
2022/12/29 01:30:45;;;;;;;2.10;1.05;;;10.50;99.90;;;;;;5070640;28;20056;-71
2022/12/29 01:33:11;;;;;;;3.03;1.23;;;10.40;99.90;;;;;;5064741;28;20033;-71
2022/12/29 01:35:36;;;;;;;3.28;1.10;;;10.40;99.90;;;;;;5067156;28;20490;-71
2022/12/29 01:38:02;;;;;;;1.33;0.77;;;10.40;99.90;;;;;;5071202;28;20077;-71
2022/12/29 01:40:28;;;;;;;1.65;1.00;;;10.30;99.90;;;;;;5070668;28;20072;-71
2022/12/29 01:42:54;;;;;;;1.77;1.02;;;10.30;99.90;;;;;;5070630;28;20055;-71
2022/12/29 01:45:19;;;;;;;2.05;0.98;;;10.30;99.90;;;;;;5071025;28;20024;-70
2022/12/29 01:47:56;;;;;;;2.65;0.90;;;10.30;99.90;;;;;;5069446;28;20168;-71
2022/12/29 01:50:28;;;;;;;2.95;1.17;;;10.30;99.90;;;;;;5065712;28;20021;-71
2022/12/29 01:53:03;;;;;;;3.10;0.95;;;10.30;99.90;;;;;;5070616;28;20111;-71
2022/12/29 01:55:33;;;;;;;3.28;1.02;;;10.20;99.90;;;;;;5066829;28;20078;-71
2022/12/29 01:58:00;;;;;;;;;;;10.20;99.90;;;;;;5070038;28;20016;-71
2022/12/29 02:00:26;;;;;;;1.98;1.17;;;10.20;99.90;;;;;;5070013;28;20258;-71
2022/12/29 02:02:53;;;;;;;2.65;1.40;;;10.10;99.90;;;;;;5067604;28;20032;-71
2022/12/29 02:05:43;;;;;;;5.40;1.00;;;10.10;99.90;;;;;;5070973;28;20461;-70
2022/12/29 02:08:09;;;;;;;3.25;1.20;;;10.20;99.90;;;;;;5061992;28;20108;-71
2022/12/29 02:10:36;;;;;;;3.60;0.90;;;10.10;99.90;;;;;;5069564;28;20056;-71
2022/12/29 02:13:01;;;;;;;1.95;0.90;;;10.10;99.90;;;;;;5070425;28;20040;-71
2022/12/29 02:16:05;;;;;;;1.75;0.95;;;10.10;99.90;;;;;;5069994;28;20373;-71
2022/12/29 02:18:42;;;;;;;2.05;0.98;;;10.10;99.90;;;;;;5068413;28;20024;-71
2022/12/29 02:21:23;;;;;;;3.60;1.08;;;10.00;99.90;;;;;;5070635;28;20028;-71
2022/12/29 02:23:52;;;;;;;2.70;1.25;;;10.00;99.90;;;;;;5069203;28;20181;-71
2022/12/29 02:26:35;;;;;;;4.13;1.30;;;10.00;99.90;;;;;;5066897;28;20419;-71
2022/12/29 02:29:19;;;;;;;3.72;1.00;;;10.00;99.90;;;;;;5071964;28;20115;-71
2022/12/29 02:32:02;;;;;;;1.98;0.77;;;10.00;99.90;;;;;;5065719;28;20025;-71
2022/12/29 02:34:45;;;;;;;4.25;1.25;;;9.90;99.90;;;;;;5066215;28;20028;-70
2022/12/29 02:37:29;;;;;;;3.10;1.00;;;10.00;99.90;;;;;;5066444;28;20043;-70
2022/12/29 02:40:21;;;;;;;6.25;1.88;;;10.00;99.90;;;;;;5067812;28;20028;-71
2022/12/29 02:42:50;;;;;;;3.70;1.05;;;10.00;99.90;;;;;;5069430;28;20024;-71
2022/12/29 02:45:28;;;;;;;3.22;1.00;;;10.10;99.90;;;;;;5070579;28;20062;-71
2022/12/29 02:48:02;;;;;;;1.52;0.80;;;10.10;99.90;;;;;;5070550;28;20419;-72
2022/12/29 02:50:37;;;;;;;4.80;1.20;;;10.20;99.90;;;;;;5069560;28;20024;-72
2022/12/29 02:53:07;;;;;;;4.43;1.23;;;10.20;99.90;;;;;;5065667;28;20090;-71
2022/12/29 02:55:33;;;;;;;1.17;0.82;;;10.30;99.90;;;;;;5071874;28;20059;-70
2022/12/29 02:58:17;;;;;;;4.53;1.00;;;10.30;99.90;;;;;;5059324;28;20055;-70
2022/12/29 03:01:03;;;;;;;3.38;1.00;;;10.30;99.90;;;;;;5075099;28;20032;-71
2022/12/29 03:03:56;;;;;;;3.28;1.45;;;10.40;99.90;;;;;;5075923;28;20032;-71
2022/12/29 03:06:35;;;;;;;3.75;0.80;;;10.50;99.90;;;;;;5081053;28;20027;-71
2022/12/29 03:09:20;;;;;;;3.55;1.10;;;10.50;99.90;;;;;;5075094;28;20047;-71
2022/12/29 03:12:10;;;;;;;6.72;2.03;;;10.50;99.90;;;;;;5063394;28;20020;-70
2022/12/29 03:17:48;;;;;;;2.83;0.90;;;10.60;99.90;;;;;;5067142;28;19911;-71
2022/12/29 03:20:21;;;;;;;1.23;0.70;;;10.60;99.90;;;;;;5079053;28;20498;-71
2022/12/29 03:22:49;;;;;;;2.08;0.77;;;10.50;99.90;;;;;;5065484;28;20160;-71
2022/12/29 03:25:27;;;;;;;1.55;1.00;;;10.60;99.90;;;;;;5069016;28;20485;-71
2022/12/29 03:27:58;;;;;;;1.92;0.80;;;10.60;99.90;;;;;;5060910;28;20025;-71
2022/12/29 03:30:25;;;;;;;2.00;0.98;;;10.70;99.90;;;;;;5065114;28;20025;-71
2022/12/29 03:32:56;;;;;;;1.23;0.90;;;10.80;99.90;;;;;;5069928;28;20044;-71
2022/12/29 03:35:25;;;;;;;3.05;1.02;;;10.80;99.90;;;;;;5065068;28;20059;-71
2022/12/29 03:38:25;;;;;;;2.20;0.73;;;10.80;99.90;;;;;;5067101;28;20024;-71
2022/12/29 03:40:55;;;;;;;1.95;0.98;;;10.80;99.90;;;;;;5059652;28;20295;-71
2022/12/29 03:43:21;;;;;;;;;;;10.80;99.90;;;;;;5051907;28;20083;-71
2022/12/29 03:45:47;;;;;;;5.38;1.10;;;10.80;99.90;;;;;;5051892;28;21109;-69
2022/12/29 03:48:12;;;;;;;3.20;0.93;;;10.90;99.90;;;;;;5049679;28;20331;-70
2022/12/29 03:50:38;;;;;;;3.80;1.00;;;10.90;99.90;;;;;;5065283;28;20386;-70
2022/12/29 03:53:03;;;;;;;0.82;0.60;;;11.00;99.90;;;;;;5063402;28;20095;-70
2022/12/29 03:55:29;;;;;;;2.30;1.00;;;11.10;99.90;;;;;;5067999;28;20072;-71
2022/12/29 03:57:55;;;;;;;2.78;0.90;;;11.10;99.90;;;;;;5066268;28;20028;-70
2022/12/29 04:00:20;;;;;;;6.10;1.25;;;11.20;99.90;;;;;;5065608;28;20029;-70
2022/12/29 04:02:46;;;;;;;3.47;0.80;;;11.30;99.90;;;;;;5057762;28;20067;-70
2022/12/29 04:05:11;;;;;;;3.80;1.10;;;11.30;99.90;;;;;;5070813;28;20040;-70
2022/12/29 04:07:37;;;;;;;2.92;1.02;;;11.30;99.90;;;;;;5063496;28;20139;-71
2022/12/29 04:10:03;;;;;;;6.28;1.10;;;11.20;99.90;;;;;;5069353;28;20080;-71
2022/12/29 04:12:29;;;;;;;2.17;0.90;;;11.10;99.90;;;;;;5068421;28;20491;-71
2022/12/29 04:14:54;;;;;;;2.10;0.80;;;11.10;99.90;;;;;;5067444;28;20037;-71
2022/12/29 04:17:20;;;;;;;3.58;0.90;;;11.00;99.90;;;;;;5063636;28;20469;-70
2022/12/29 04:19:45;;;;;;;2.70;0.80;;;11.00;99.90;;;;;;5068821;28;20083;-70
2022/12/29 04:22:11;;;;;;;2.72;0.68;;;11.00;99.90;;;;;;5067700;28;20426;-70
2022/12/29 04:24:37;;;;;;;3.50;0.95;;;11.00;99.90;;;;;;5037365;28;20503;-71
2022/12/29 04:27:03;;;;;;;2.75;0.85;;;10.90;99.90;;;;;;5058169;28;20026;-72
2022/12/29 04:29:28;;;;;;;4.30;0.98;;;10.80;99.90;;;;;;5058994;28;20032;-70
2022/12/29 04:31:54;;;;;;;2.03;0.93;;;10.80;99.90;;;;;;5057581;28;20037;-70
2022/12/29 04:34:20;;;;;;;3.75;0.90;;;10.80;99.90;;;;;;5058549;28;20224;-71
2022/12/29 04:36:45;;;;;;;1.60;1.02;;;10.80;99.90;;;;;;5057541;28;20020;-71
2022/12/29 04:39:11;;;;;;;1.52;0.60;;;10.70;99.90;;;;;;5061882;28;20024;-71
2022/12/29 04:41:36;;;;;;;6.38;1.50;;;10.80;99.90;;;;;;5061275;28;20017;-71
2022/12/29 04:44:02;;;;;;;2.67;1.00;;;10.90;99.90;;;;;;5059169;28;20020;-71
2022/12/29 04:46:27;;;;;;;1.83;1.02;;;10.80;99.90;;;;;;5060858;28;20453;-71
2022/12/29 04:48:53;;;;;;;3.33;1.15;;;10.90;99.90;;;;;;5058686;28;20029;-71
2022/12/29 04:51:19;;;;;;;3.17;1.17;;;10.90;99.90;;;;;;5060074;28;20033;-71
2022/12/29 04:53:44;;;;;;;4.50;1.00;;;10.80;99.90;;;;;;5059155;28;20017;-72
2022/12/29 04:56:10;;;;;;;2.00;0.90;;;10.90;99.90;;;;;;5061758;28;20032;-71
2022/12/29 04:58:36;;;;;;;2.60;1.25;;;10.80;99.90;;;;;;5053588;28;20111;-71
2022/12/29 05:01:02;;;;;;;2.55;1.35;;;10.80;99.90;;;;;;5058666;28;20043;-70
2022/12/29 05:03:28;;;;;;;2.33;1.13;;;10.80;99.90;;;;;;5057238;28;20052;-71
2022/12/29 05:05:55;;;;;;;3.95;1.20;;;10.80;99.90;;;;;;5062077;28;20052;-70
2022/12/29 05:08:22;;;;;;;2.08;0.93;;;10.90;99.90;;;;;;5040671;28;20474;-70
2022/12/29 05:10:49;;;;;;;2.17;1.00;;;10.90;99.90;;;;;;5059961;28;20112;-71
2022/12/29 05:13:15;;;;;;;4.50;1.10;;;10.90;99.90;;;;;;5059672;28;20043;-71
2022/12/29 05:15:40;;;;;;;3.40;1.00;;;11.00;99.90;;;;;;5057269;28;20029;-71
2022/12/29 05:18:06;;;;;;;3.92;1.30;;;11.00;99.90;;;;;;5062185;28;20042;-71
2022/12/29 05:20:31;;;;;;;2.47;1.10;;;10.90;99.90;;;;;;5060480;28;20020;-71
2022/12/29 05:22:57;;;;;;;2.50;1.10;;;10.90;99.90;;;;;;5068376;28;20044;-71
2022/12/29 05:25:23;;;;;;;2.10;1.20;;;11.00;99.90;;;;;;5079592;28;20389;-71
2022/12/29 05:27:48;;;;;;;4.32;1.45;;;11.00;99.90;;;;;;5075454;28;20048;-71
2022/12/29 05:30:14;;;;;;;3.03;1.20;;;11.00;99.90;;;;;;5081043;28;20032;-71
2022/12/29 05:32:39;;;;;;;3.20;1.00;;;11.00;99.90;;;;;;5076362;28;20032;-71
2022/12/29 05:35:05;;;;;;;1.27;1.17;;;11.00;99.90;;;;;;5079472;28;20032;-71
2022/12/29 05:37:31;;;;;;;1.83;1.00;;;11.10;99.90;;;;;;5077630;28;20070;-71
2022/12/29 05:39:56;;;;;;;3.30;1.70;;;11.10;99.90;;;;;;5080884;28;20493;-70
2022/12/29 05:42:22;;;;;;;9.27;2.28;;;11.10;99.90;;;;;;5079037;28;20331;-71
2022/12/29 05:44:51;;;;;;;2.35;1.20;;;11.20;99.90;;;;;;5079063;28;20069;-70
2022/12/29 05:47:17;;;;;;;2.72;1.30;;;11.20;99.90;;;;;;5079390;28;20012;-69
2022/12/29 05:49:42;;;;;;;2.88;1.30;;;11.10;99.90;;;;;;5077781;28;20037;-71
2022/12/29 05:52:08;;;;;;;2.28;1.00;;;11.00;99.90;;;;;;5080051;28;20016;-71
2022/12/29 05:54:33;;;;;;;3.50;1.13;;;11.00;99.90;;;;;;5078789;28;20024;-70
2022/12/29 05:56:59;;;;;;;6.30;1.52;;;11.10;99.90;;;;;;5078114;28;20739;-71
2022/12/29 05:59:25;;;;;;;5.90;1.25;;;11.00;99.90;;;;;;5070978;28;20024;-71
2022/12/29 06:01:50;;;;;;;2.15;1.25;;;11.00;99.90;;;;;;5077007;28;20025;-70
2022/12/29 06:04:16;;;;;;;3.45;1.20;;;11.00;99.90;;;;;;5076578;28;20097;-70
2022/12/29 06:06:43;;;;;;;2.03;1.27;;;11.10;99.90;;;;;;5078300;28;20361;-70
2022/12/29 06:09:10;;;;;;;2.05;1.08;;;11.20;99.90;;;;;;5079382;28;20039;-71
2022/12/29 06:11:37;;;;;;;4.15;1.25;;;11.10;99.90;;;;;;5077762;28;20028;-71
2022/12/29 06:14:02;;;;;;;3.72;1.30;;;11.10;99.90;;;;;;5079152;28;20036;-71
2022/12/29 06:16:28;;;;;;;3.28;1.00;;;11.10;99.90;;;;;;5074995;28;20012;-70
2022/12/29 06:18:54;;;;;;;7.45;1.00;;;11.00;99.90;;;;;;5078185;28;20457;-70
2022/12/29 06:21:19;;;;;;;1.88;1.35;;;11.00;99.90;;;;;;5078890;28;20078;-70
2022/12/29 06:23:45;;;;;;;5.10;1.08;;;11.00;99.90;;;;;;5065797;28;20051;-70
2022/12/29 06:26:10;;;;;;;2.60;1.35;;;11.10;99.90;;;;;;5064921;28;20521;-71
2022/12/29 06:28:36;;;;;;;5.82;1.23;;;11.00;99.90;;;;;;5061429;28;20029;-71
2022/12/29 06:31:02;;;;;;;2.75;1.40;;;11.00;99.90;;;;;;5065741;28;20028;-71
2022/12/29 06:33:28;;;;;;;3.15;1.13;;;11.00;99.90;;;;;;5062330;28;20048;-71
2022/12/29 06:35:54;;;;;;;2.35;1.30;;;10.90;99.90;;;;;;5062445;28;20017;-71
2022/12/29 06:38:19;;;;;;;2.05;1.13;;;10.80;99.90;;;;;;5071156;28;20269;-71
2022/12/29 06:40:45;;;;;;;2.10;1.13;;;10.70;99.90;;;;;;5070245;28;20035;-71
2022/12/29 06:43:11;;;;;;;5.43;1.42;;;10.60;99.90;;;;;;5070813;28;20056;-71
2022/12/29 06:45:39;;;;;;;1.70;1.00;;;10.50;99.90;;;;;;5069374;28;20104;-71
2022/12/29 06:48:05;;;;;;;2.65;1.25;;;10.50;99.90;;;;;;5064220;28;20062;-70
2022/12/29 06:50:31;;;;;;;3.70;1.00;;;10.40;99.90;;;;;;5068875;28;20055;-71
2022/12/29 06:52:56;;;;;;;4.53;1.10;;;10.40;99.90;;;;;;5068864;28;20060;-70
2022/12/29 06:55:22;;;;;;;2.10;0.88;;;10.30;99.90;;;;;;5068825;28;20023;-70
2022/12/29 06:57:47;;;;;;;1.92;0.82;;;10.30;99.90;;;;;;5061821;28;20803;-71
2022/12/29 07:00:14;;;;;;;3.22;1.20;;;10.30;99.90;;;;;;5062555;28;20021;-70
2022/12/29 07:02:39;;;;;;;4.40;1.38;;;10.20;99.90;;;;;;5067314;28;20119;-70
2022/12/29 07:05:07;;;;;;;3.70;1.20;;;10.20;99.90;;;;;;5069548;28;20103;-70
2022/12/29 07:07:32;;;;;;;3.47;1.40;;;10.20;99.90;;;;;;5063622;28;20103;-70
2022/12/29 07:09:58;;;;;;;5.95;1.42;;;10.20;99.90;;;;;;5050781;28;20112;-70
2022/12/29 07:12:23;;;;;;;1.13;1.00;;;10.10;99.90;;;;;;5053449;28;20036;-71
2022/12/29 07:14:49;;;;;;;2.40;1.30;;;10.10;99.90;;;;;;5050269;28;20021;-71
2022/12/29 07:17:14;;;;;;;1.73;0.90;;;10.00;99.90;;;;;;5049556;28;20044;-71
2022/12/29 07:19:40;;;;;;;3.80;1.17;;;10.10;99.90;;;;;;5052723;28;20033;-71
2022/12/29 07:22:06;;;;;;;3.75;1.10;;;10.10;99.90;;;;;;5056623;28;20053;-71
2022/12/29 07:24:31;;;;;;;4.05;1.30;;;10.10;99.90;;;;;;5069562;28;20035;-72
2022/12/29 07:26:57;;;;;;;3.00;1.20;;;10.00;99.90;;;;;;5062313;28;20051;-71
2022/12/29 07:29:22;;;;;;;2.40;1.05;;;10.00;99.90;;;;;;5070025;28;20025;-75
2022/12/29 07:31:48;;;;;;;4.10;1.20;;;10.00;99.90;;;;;;5072027;28;20044;-73
2022/12/29 07:34:14;;;;;;;1.38;0.80;;;10.10;99.90;;;;;;5072080;28;20025;-72
2022/12/29 07:36:39;;;;;;;1.38;1.00;;;10.10;99.90;;;;;;5080041;28;20076;-72
2022/12/29 07:39:05;;;;;;;2.17;1.13;;;10.00;99.90;;;;;;5072803;28;20381;-71
2022/12/29 07:41:30;;;;;;;2.70;0.98;;;10.00;99.90;;;;;;5069643;28;20039;-71
2022/12/29 07:43:56;;;;;;;3.80;1.20;;;10.00;99.90;;;;;;5070122;28;20024;-70
2022/12/29 07:46:21;;;;;;;1.00;0.90;;;10.00;99.90;;;;;;5078001;28;20024;-83
2022/12/29 07:48:47;;;;;;;2.90;1.48;;;10.00;99.90;;;;;;5072325;28;20222;-80
2022/12/29 07:51:13;;;;;;;2.85;1.17;;;10.10;99.90;;;;;;5073250;28;20063;-72
2022/12/29 07:53:38;;;;;;;2.33;1.05;;;10.00;99.90;;;;;;5072546;28;20033;-76
2022/12/29 07:56:04;;;;;;;5.28;1.30;;;10.10;99.90;;;;;;5073387;28;20092;-78
2022/12/29 07:58:30;;;;;;;2.58;1.15;;;10.10;99.90;;;;;;5072228;28;20065;-80
2022/12/29 08:00:56;;;;;;;5.75;1.38;;;10.30;99.90;;;;;;5073280;28;20039;-81
2022/12/29 08:03:23;;;;;;;2.80;0.90;;;10.30;99.90;;;;;;5071629;28;20035;-69
2022/12/29 08:05:49;;;;;;;5.97;1.30;;;10.50;99.90;;;;;;5072278;28;20036;-69
2022/12/29 08:08:14;;;;;;;3.55;1.30;;;10.50;99.90;;;;;;5072011;28;20414;-70
2022/12/29 08:10:40;;;;;;;3.08;1.02;;;10.60;99.90;;;;;;5071572;28;20043;-70
2022/12/29 08:13:06;;;;;;;2.25;1.58;;;10.60;99.90;;;;;;5072292;28;20036;-70
2022/12/29 08:15:31;;;;;;;4.03;1.23;;;10.70;99.90;;;;;;5068820;28;20032;-71
2022/12/29 08:17:57;;;;;;;2.53;1.20;;;10.80;99.90;;;;;;5069456;28;20036;-71
2022/12/29 08:20:22;;;;;;;4.18;1.20;;;10.80;99.90;;;;;;5069201;28;20027;-71
2022/12/29 08:22:48;;;;;;;2.75;1.38;;;10.80;99.90;;;;;;5071145;28;20044;-69
2022/12/29 08:25:13;;;;;;;2.97;1.38;;;10.90;99.90;;;;;;5073120;28;20371;-71
2022/12/29 08:27:39;;;;;;;2.90;1.20;;;11.00;99.90;;;;;;5068629;28;20025;-70
2022/12/29 08:30:05;;;;;;;4.13;1.30;;;11.00;99.90;;;;;;5072373;28;20032;-68
2022/12/29 08:32:31;;;;;;;3.78;1.38;;;11.00;99.90;;;;;;5068460;28;20059;-67
2022/12/29 08:34:57;;;;;;;3.28;1.38;;;11.10;99.90;;;;;;5066571;28;20060;-66
2022/12/29 08:37:23;;;;;;;2.60;1.20;;;11.10;99.90;;;;;;5061160;28;20029;-66
2022/12/29 08:39:48;;;;;;;2.33;1.48;;;11.10;99.90;;;;;;5065352;28;20052;-65
2022/12/29 08:42:14;;;;;;;3.17;1.20;;;11.20;99.90;;;;;;5070633;28;20031;-65
2022/12/29 08:44:40;;;;;;;2.08;1.30;;;11.20;99.90;;;;;;5069264;28;20448;-66
2022/12/29 08:47:05;;;;;;;4.60;1.35;;;11.20;99.90;;;;;;5054607;28;20028;-66
2022/12/29 08:49:33;;;;;;;2.15;1.45;;;11.20;99.90;;;;;;5067302;28;20532;-66
2022/12/29 08:51:58;;;;;;;3.78;1.20;;;11.30;99.90;;;;;;5070462;28;20105;-66
2022/12/29 08:54:24;;;;;;;3.83;1.40;;;11.30;99.90;;;;;;5070582;28;20025;-66
2022/12/29 08:56:50;;;;;;;2.15;1.30;;;11.20;99.90;;;;;;5062045;28;20032;-66
2022/12/29 08:59:15;;;;;;;2.72;1.25;;;11.20;99.90;;;;;;5070137;28;20032;-66
2022/12/29 09:01:41;;;;;;;3.10;1.25;;;11.10;99.90;;;;;;5066067;28;20029;-65
2022/12/29 09:04:07;;;;;;;3.30;1.30;;;11.10;99.90;;;;;;5070013;28;20107;-66
2022/12/29 09:06:33;;;;;;;2.78;1.35;;;11.10;99.90;;;;;;5067250;28;20116;-66
2022/12/29 09:08:59;;;;;;;4.82;1.50;;;11.20;99.90;;;;;;5069008;28;20230;-66
2022/12/29 09:11:25;;;;;;;4.07;1.48;;;11.20;99.90;;;;;;5048996;28;20037;-66
2022/12/29 09:13:52;;;;;;;6.05;1.10;;;11.20;99.90;;;;;;5069524;28;20082;-66
2022/12/29 09:16:20;;;;;;;2.47;1.20;;;11.30;99.90;;;;;;5063503;28;20020;-66
2022/12/29 09:18:45;;;;;;;2.05;1.20;;;11.40;99.90;;;;;;5069476;28;20023;-66
2022/12/29 09:21:12;;;;;;;2.25;1.05;;;11.50;99.90;;;;;;5067772;28;20036;-66
2022/12/29 09:23:37;;;;;;;4.43;1.13;;;11.60;99.90;;;;;;5065078;28;20052;-66
2022/12/29 09:26:03;;;;;;;3.83;1.38;;;11.70;99.90;;;;;;5056728;28;20017;-66
2022/12/29 09:28:30;;;;;;;3.05;1.08;;;11.80;99.90;;;;;;5064641;28;20074;-66
2022/12/29 09:30:57;;;;;;;5.65;1.20;;;12.00;99.90;;;;;;5066307;28;20032;-66
2022/12/29 09:33:22;;;;;;;1.58;1.10;;;12.00;99.90;;;;;;5067670;28;20028;-66
2022/12/29 09:35:56;;;;;;;3.50;1.08;;;12.10;99.90;;;;;;5069923;28;20103;-66
2022/12/29 09:38:23;;;;;;;2.22;1.40;;;12.30;99.90;;;;;;5068695;28;20059;-66
2022/12/29 09:40:52;;;;;;;3.47;1.23;;;12.30;99.90;;;;;;5068086;28;20086;-68
2022/12/29 09:43:28;;;;;;;3.42;1.20;;;12.40;99.90;;;;;;5069923;28;20016;-68
2022/12/29 09:46:24;;;;;;;3.17;1.67;;;12.50;99.90;;;;;;5058924;28;20025;-68
2022/12/29 09:49:11;;;;;;;2.50;1.10;;;12.60;99.90;;;;;;5061347;28;20050;-67
2022/12/29 09:51:39;;;;;;;2.55;1.08;;;12.70;99.90;;;;;;5068688;28;20047;-67
2022/12/29 09:54:38;;;;;;;3.97;1.20;;;12.80;99.90;;;;;;5069172;28;20139;-67
2022/12/29 09:57:10;;;;;;;1.60;1.10;;;12.80;99.90;;;;;;5067517;28;20025;-67
2022/12/29 09:59:42;;;;;;;3.03;1.10;;;12.90;99.90;;;;;;5064924;28;20025;-69
2022/12/29 10:02:34;;;;;;;4.75;2.50;;;13.10;99.90;;;;;;5068576;28;20040;-67
2022/12/29 10:05:00;;;;;;;6.90;2.35;;;13.20;99.90;;;;;;5061647;28;20020;-67
2022/12/29 10:07:49;;;;;;;7.45;2.35;;;13.20;99.90;;;;;;5072053;28;20046;-66
2022/12/29 10:10:50;;;;;;;3.20;1.80;;;13.20;99.90;;;;;;5066309;28;20060;-67
2022/12/29 10:13:24;;;;;;;3.13;1.67;;;13.10;99.90;;;;;;5069820;28;20024;-67
2022/12/29 10:15:56;;;;;;;2.92;1.25;;;13.10;99.90;;;;;;5061098;28;20021;-67
2022/12/29 10:18:43;;;;;;;4.70;1.13;;;13.00;99.90;;;;;;5068249;28;20031;-67
2022/12/29 10:21:21;;;;;;;2.90;1.20;;;13.10;99.90;;;;;;5066320;28;20033;-65
2022/12/29 10:23:52;;;;;;;2.25;1.38;;;13.10;99.90;;;;;;5067530;28;20125;-68
2022/12/29 10:26:30;;;;;;;2.60;1.20;;;13.10;99.90;;;;;;5063846;28;20027;-67
2022/12/29 10:29:19;;;;;;;3.30;1.33;;;13.10;99.90;;;;;;5062889;28;20036;-67
2022/12/29 10:31:57;;;;;;;2.38;1.40;;;13.10;99.90;;;;;;5062664;28;20037;-67
2022/12/29 10:34:38;;;;;;;5.55;1.15;;;13.20;99.90;;;;;;5058683;28;20474;-67
2022/12/29 10:37:17;;;;;;;3.10;1.70;;;13.10;99.90;;;;;;5076009;28;20102;-67
2022/12/29 10:39:49;;;;;;;5.13;1.90;;;13.10;99.90;;;;;;5047975;28;20089;-66
2022/12/29 10:42:40;;;;;;;2.33;1.10;;;13.30;99.90;;;;;;5069153;28;20031;-66
2022/12/29 10:45:07;;;;;;;2.45;1.23;;;;;;;;;;5068662;28;20052;-66
2022/12/29 10:47:42;;;;;;;6.97;1.35;;;13.40;99.90;;;;;;5068582;28;20037;-67
2022/12/29 10:50:12;;;;;;;9.25;1.70;;;13.50;99.90;;;;;;5064965;28;20199;-67
2022/12/29 10:52:38;;;;;;;2.65;1.15;;;13.70;99.90;;;;;;5068537;28;20056;-68
2022/12/29 10:55:18;;;;;;;3.00;1.63;;;13.90;99.90;;;;;;5063959;28;20509;-65
2022/12/29 10:57:45;;;;;;;4.65;1.48;;;;;;;;;;5050007;28;20037;-66
2022/12/29 11:00:14;;;;;;;3.53;1.33;;;14.20;99.90;;;;;;5065014;28;20025;-66
2022/12/29 11:03:06;;;;;;;1.58;1.00;;;14.40;99.90;;;;;;5068277;28;20032;-66
2022/12/29 11:05:36;;;;;;;3.35;1.27;;;;;;;;;;5060610;28;20505;-66
2022/12/29 11:08:04;;;;;;;;;;;14.80;99.90;;;;;;5067517;28;20059;-66
2022/12/29 11:10:36;;;;;;;3.33;1.30;;;14.80;99.90;;;;;;5066413;28;19908;-66
2022/12/29 11:13:48;;;;;;;4.13;1.00;;;14.80;99.90;;;;;;5068862;28;20021;-67
2022/12/29 11:16:14;;;;;;;1.42;1.08;;;14.80;99.90;;;;;;5002021;28;20101;-67
2022/12/29 11:18:42;;;;;;;3.65;1.10;;;14.60;99.90;;;;;;4993006;28;20120;-67
2022/12/29 11:21:33;;;;;;;2.33;1.05;;;14.60;99.90;;;;;;5007009;28;20048;-67
2022/12/29 11:24:23;;;;;;;2.22;0.90;;;14.50;99.90;;;;;;5001807;28;20037;-67
2022/12/29 11:26:52;;;;;;;4.15;1.02;;;14.40;99.90;;;;;;5009824;28;20038;-67
2022/12/29 11:29:25;;;;;;;4.60;1.10;;;14.30;99.90;;;;;;5011025;28;20057;-67
2022/12/29 11:31:58;;;;;;;2.33;1.08;;;14.20;99.90;;;;;;5015493;28;20029;-67
2022/12/29 11:34:33;;;;;;;3.08;1.25;;;14.00;99.90;;;;;;4994247;28;20064;-67
2022/12/29 11:37:05;;;;;;;1.75;1.20;;;14.00;99.90;;;;;;5015184;28;20029;-65
2022/12/29 11:39:44;;;;;;;5.13;1.58;;;14.00;99.90;;;;;;5007199;28;20037;-67
2022/12/29 11:42:19;;;;;;;1.80;1.15;;;14.10;99.90;;;;;;5016496;28;20041;-67
2022/12/29 11:44:47;;;;;;;2.13;1.30;;;14.10;99.90;;;;;;5009171;28;20038;-66
2022/12/29 11:47:28;;;;;;;1.42;1.10;;;14.00;99.90;;;;;;5047622;28;20033;-66
2022/12/29 11:50:04;;;;;;;3.75;1.20;;;13.80;99.90;;;;;;5068662;28;20025;-67
2022/12/29 11:52:34;;;;;;;2.75;1.17;;;13.60;99.90;;;;;;5071375;28;20461;-67
2022/12/29 11:55:04;;;;;;;3.17;1.27;;;13.40;99.90;;;;;;5066919;28;20025;-66
2022/12/29 11:57:34;;;;;;;6.47;1.60;;;13.30;99.90;;;;;;5064747;28;20078;-67
2022/12/29 12:00:01;;;;;;;;;;;13.20;99.90;;;;;;5067769;28;20359;-66
2022/12/29 12:02:38;;;;;;;3.63;1.80;;;13.20;99.90;;;;;;5071878;28;20353;-68
2022/12/29 12:05:21;;;;;;;3.17;1.45;;;13.10;99.90;;;;;;5051149;28;20470;-66
2022/12/29 12:08:01;;;;;;;4.25;1.40;;;13.00;99.90;;;;;;5071322;28;20029;-66
2022/12/29 12:10:38;;;;;;;5.15;1.73;;;12.90;99.90;;;;;;5067646;28;20032;-67
2022/12/29 12:13:12;;;;;;;3.45;1.88;;;12.70;99.90;;;;;;5071537;28;20066;-66
2022/12/29 12:15:47;;;;;;;4.57;1.55;;;12.60;99.90;;;;;;5063503;28;20017;-67
2022/12/29 12:18:23;;;;;;;2.50;1.30;;;12.50;99.90;;;;;;5071161;28;20028;-66
2022/12/29 12:20:56;;;;;;;1.55;0.98;;;12.50;99.90;;;;;;5069203;28;20107;-66
2022/12/29 12:23:54;;;;;;;2.97;1.27;;;12.50;99.90;;;;;;5070666;28;20131;-66
2022/12/29 12:26:27;;;;;;;2.17;0.90;;;12.60;99.90;;;;;;5067223;28;20032;-66
2022/12/29 12:28:58;;;;;;;1.33;1.17;;;12.70;99.90;;;;;;5068227;28;20024;-66
2022/12/29 12:31:49;;;;;;;1.83;0.80;;;12.80;99.90;;;;;;5071680;28;20371;-66
2022/12/29 12:34:24;;;;;;;0.88;0.80;;;12.90;99.90;;;;;;5066297;28;20024;-67
2022/12/29 12:36:53;;;;;;;2.28;0.95;;;13.00;99.90;;;;;;5078881;28;20103;-66
2022/12/29 12:39:47;;;;;;;1.45;0.98;;;13.10;99.90;;;;;;5065693;28;20457;-66
2022/12/29 12:42:19;;;;;;;4.50;1.65;;;13.10;99.90;;;;;;5070220;28;20036;-64
2022/12/29 12:45:03;;;;;;;2.28;1.10;;;13.20;99.90;;;;;;5070453;28;20028;-67
2022/12/29 12:47:57;;;;;;;1.50;1.40;;;13.10;99.90;;;;;;5070676;28;20029;-66
2022/12/29 12:50:52;;;;;;;5.28;1.65;;;12.90;99.90;;;;;;5068917;28;20024;-67
2022/12/29 12:53:20;;;;;;;3.25;1.17;;;12.70;99.90;;;;;;5066829;28;20036;-67
2022/12/29 12:56:37;;;;;;;3.58;1.30;;;12.70;99.90;;;;;;5070675;28;20484;-66
2022/12/29 12:59:05;;;;;;;3.92;1.60;;;12.60;99.90;;;;;;5034516;28;20043;-66
2022/12/29 13:01:57;;;;;;;2.25;1.60;;;12.70;99.90;;;;;;5070834;28;20025;-67
2022/12/29 13:04:37;;;;;;;3.17;1.42;;;12.70;99.90;;;;;;5063255;28;20029;-66
2022/12/29 13:07:21;;;;;;;2.38;1.52;;;12.70;99.90;;;;;;5066219;28;20012;-66
2022/12/29 13:10:19;;;;;;;5.45;1.80;;;12.80;99.90;;;;;;5068656;28;20160;-67
2022/12/29 13:13:15;;;;;;;6.45;1.85;;;12.90;99.90;;;;;;5063141;28;20031;-66
2022/12/29 13:16:10;;;;;;;3.88;1.52;;;13.00;99.90;;;;;;5065544;28;20398;-65
2022/12/29 13:18:50;;;;;;;2.83;1.50;;;13.00;99.90;;;;;;5057756;28;20115;-65
2022/12/29 13:21:28;;;;;;;;;;;13.00;99.90;;;;;;5070962;28;20035;-67
2022/12/29 13:24:15;;;;;;;4.43;2.15;;;13.10;99.90;;;;;;5066538;28;19923;-67
2022/12/29 13:27:03;;;;;;;4.03;1.60;;;13.10;99.90;;;;;;5069890;28;20028;-66
2022/12/29 13:29:42;;;;;;;3.15;1.33;;;13.10;99.90;;;;;;5065063;28;20060;-67
2022/12/29 13:32:28;;;;;;;;;;;13.10;99.90;;;;;;5071158;28;20135;-64
2022/12/29 13:35:23;;;;;;;3.40;1.33;;;13.00;99.90;;;;;;5059225;28;19904;-67
2022/12/29 13:38:15;;;;;;;1.42;1.02;;;12.90;99.90;;;;;;5068889;28;20129;-65
2022/12/29 13:40:45;;;;;;;3.17;1.27;;;12.90;99.90;;;;;;5054350;28;20059;-67
2022/12/29 13:43:13;;;;;;;2.28;1.20;;;12.80;99.90;;;;;;5068143;28;20036;-67